»·PEaware :: SWA465 KBUR-KOAK

SWA465 :: KBUR-KOAK

FLIGHT INFORMATION

Flight Status: Arrived
Operator:
Southwest Airlines
More flights by this operator :: More flights under this callsign
Pilot: Steve F. (26981)
Aircraft: BOEING 737-900
(B739)
More flights by this aircraft type
Origin: KBUR Bob Hope-Burbank
United States
Destination: KOAK Metro Oakland Intl
United States
More flights between these airports :: More routes between these airports
Route: OROSZ2 COREZ RGOOD EMZOH3
File this flight plan on PilotEdge
Remarks:
Altitude:
(Current/Filed)
32,000ft
Speed:
(Current/Filed)
430kts
Departed: 03-Jul-23 08:16 AM
Arrived: 03-Jul-23 09:06 AM
Distance/Time
Traveled:
282nm/0:50
Distance/Time
To Go:
Arrived

Flight Plot

Page will automatically refresh every two minutes.

Flight plan parsing failed; only flown route is shown


Map Options




Map Legend


Flown Route
Filed Route
Departure Airport
Arrival Airport
Navaid (VOR, NDB)
Fix

Horizontal Profiles

Position Reports

Time Latitude Longitude Heading Altitude Ground
Speed
03-Jul-23 07:59 34.196841 -118.351939 181 729ft 0kts
03-Jul-23 07:59 34.196841 -118.351939 181 729ft 0kts
03-Jul-23 08:00 34.196841 -118.351939 181 729ft 0kts
03-Jul-23 08:01 34.196841 -118.351939 181 729ft 0kts
03-Jul-23 08:02 34.196841 -118.351939 181 729ft 0kts
03-Jul-23 08:03 34.196841 -118.351939 181 729ft 0kts
03-Jul-23 08:04 34.196841 -118.351939 181 729ft 0kts
03-Jul-23 08:05 34.196841 -118.351939 181 729ft 0kts
03-Jul-23 08:06 34.196841 -118.351939 181 729ft 0kts
03-Jul-23 08:07 34.197000 -118.351895 220 729ft 1kts
03-Jul-23 08:08 34.197112 -118.351658 260 729ft 0kts
03-Jul-23 08:09 34.197112 -118.351658 260 729ft 0kts
03-Jul-23 08:10 34.197112 -118.351658 260 729ft 0kts
03-Jul-23 08:11 34.197398 -118.354799 315 729ft 15kts
03-Jul-23 08:12 34.202747 -118.356435 347 729ft 23kts
03-Jul-23 08:13 34.209185 -118.358226 347 729ft 21kts
03-Jul-23 08:14 34.212050 -118.360350 178 729ft 0kts
03-Jul-23 08:15 34.185962 -118.353464 170 1475ft 177kts
03-Jul-23 08:16 34.133236 -118.391849 220 3400ft 271kts
03-Jul-23 08:17 34.109881 -118.473208 272 5720ft 270kts
03-Jul-23 08:18 34.153487 -118.537496 336 7535ft 277kts
03-Jul-23 08:19 34.225204 -118.571231 335 10592ft 290kts
03-Jul-23 08:20 34.310652 -118.613682 336 11662ft 372kts
03-Jul-23 08:21 34.412873 -118.666109 334 13479ft 410kts
03-Jul-23 08:22 34.512350 -118.734524 328 16029ft 416kts
03-Jul-23 08:23 34.611084 -118.804511 328 18178ft 424kts
03-Jul-23 08:24 34.713974 -118.877436 328 20092ft 433kts
03-Jul-23 08:25 34.818792 -118.951957 327 21738ft 441kts
03-Jul-23 08:26 34.920279 -119.024572 327 23103ft 448kts
03-Jul-23 08:27 35.029569 -119.102912 327 24335ft 454kts
03-Jul-23 08:28 35.139072 -119.181717 327 25491ft 459kts
03-Jul-23 08:29 35.249741 -119.261620 327 26561ft 463kts
03-Jul-23 08:30 35.361187 -119.341667 326 27522ft 467kts
03-Jul-23 08:31 35.472303 -119.422417 326 28872ft 460kts
03-Jul-23 08:32 35.578990 -119.506329 318 30196ft 451kts
03-Jul-23 08:33 35.674778 -119.604235 317 31365ft 446kts
03-Jul-23 08:34 35.770374 -119.701965 317 31942ft 447kts
03-Jul-23 08:35 35.865256 -119.799659 316 31948ft 444kts
03-Jul-23 08:36 35.957386 -119.900429 312 31949ft 443kts
03-Jul-23 08:37 36.045580 -120.006678 312 31949ft 443kts
03-Jul-23 08:38 36.134266 -120.112640 313 31946ft 443kts
03-Jul-23 08:39 36.223155 -120.218228 313 31946ft 443kts
03-Jul-23 08:40 36.311926 -120.324301 313 31947ft 443kts
03-Jul-23 08:41 36.400470 -120.430472 312 31946ft 442kts
03-Jul-23 08:42 36.488600 -120.536997 312 31319ft 444kts
03-Jul-23 08:43 36.577383 -120.641102 315 28773ft 445kts
03-Jul-23 08:44 36.668785 -120.741154 315 25989ft 432kts
03-Jul-23 08:45 36.757309 -120.839713 315 23190ft 423kts
03-Jul-23 08:46 36.843438 -120.935361 315 21095ft 400kts
03-Jul-23 08:47 36.924346 -121.024841 315 19489ft 378kts
03-Jul-23 08:48 37.002299 -121.111691 315 17893ft 376kts
03-Jul-23 08:49 37.079488 -121.198151 315 16286ft 363kts
03-Jul-23 08:50 37.152699 -121.280705 314 14691ft 347kts
03-Jul-23 08:51 37.221406 -121.360479 314 13104ft 335kts
03-Jul-23 08:52 37.288521 -121.438894 314 11500ft 324kts
03-Jul-23 08:53 37.353423 -121.514844 315 9907ft 315kts
03-Jul-23 08:54 37.416288 -121.587332 317 8636ft 297kts
03-Jul-23 08:55 37.468863 -121.664039 304 7353ft 283kts
03-Jul-23 08:56 37.513349 -121.742938 305 6505ft 272kts
03-Jul-23 08:57 37.539562 -121.829746 276 5557ft 262kts
03-Jul-23 08:58 37.548400 -121.917516 277 4851ft 248kts
03-Jul-23 08:59 37.559874 -122.000696 293 4142ft 226kts
03-Jul-23 09:00 37.597544 -122.058799 307 3119ft 205kts
03-Jul-23 09:01 37.632289 -122.110609 306 2092ft 174kts
03-Jul-23 09:02 37.660418 -122.152853 308 1248ft 152kts
03-Jul-23 09:03 37.687591 -122.193477 310 432ft 148kts
03-Jul-23 09:04 37.710389 -122.227601 309 14ft 61kts
03-Jul-23 09:05 37.715545 -122.231638 44 14ft 2kts
03-Jul-23 09:06 37.713080 -122.227760 130 14ft 22kts
03-Jul-23 09:07 37.713310 -122.222455 131 14ft 17kts
03-Jul-23 09:08 37.710154 -122.218171 137 14ft 21kts
03-Jul-23 09:09 37.710433 -122.215719 312 14ft 3kts
03-Jul-23 09:10 37.710466 -122.215767 311 14ft 0kts
03-Jul-23 09:11 37.710466 -122.215767 311 14ft 0kts
03-Jul-23 09:12 37.710466 -122.215767 311 14ft 0kts
03-Jul-23 09:13 37.710466 -122.215767 311 14ft 0kts
03-Jul-23 09:14 37.710466 -122.215767 311 14ft 0kts
03-Jul-23 09:15 37.710466 -122.215767 311 14ft 0kts
03-Jul-23 09:16 37.710466 -122.215767 311 14ft 0kts
03-Jul-23 09:17 37.710466 -122.215767 311 14ft 0kts
03-Jul-23 09:18 37.710466 -122.215767 311 14ft 0kts
03-Jul-23 09:19 37.710466 -122.215767 311 14ft 0kts

Navigation Log

Ident Type
Flight plan parsing failed, navigation log unavailable